Terminal Aerodrome Forecast
Issued by NWS

Home | Current Version | Previous Version | Text Only | Print | Product List | Glossary On
Versions: 1 2 3 4 5 6 7 8 9 10 11 12 13 14
107
FTUS42 KGSP 202327
TAFAND
TAF
KAND 202327Z 2100/2124 13003KT P6SM SCT250
     FM210700 07003KT P6SM BKN250
     FM211200 06004KT P6SM BKN060 BKN200
     FM211400 08006KT P6SM BKN030 BKN200
     FM211800 11006KT P6SM BKN035 OVC200
     FM212300 09006KT P6SM BKN025 OVC050=

USA.gov is the U.S. government's official web portal to all federal, state and local government web resources and services.